Time;durP1;ratioP1;P1;durP2;ratioP2;P2;SDS_P1;SDS_P2;PMS_P1;PMS_P2;Temp;Humidity;BMP_temperature;BMP_pressure;BME280_temperature;BME280_humidity;BME280_pressure;Samples;Min_cycle;Max_cycle;Signal;HPM_P1;HPM_P2
2022/11/17 00:00:41;;;;;;;5.53;1.40;;;11.90;99.90;;;12.31;nan;98738.38;5013782;28;21084;-65
2022/11/17 00:03:15;;;;;;;2.20;2.03;;;11.90;99.90;;;12.29;nan;98735.13;5012472;28;20708;-66
2022/11/17 00:05:43;;;;;;;1.70;1.43;;;11.90;99.90;;;12.32;nan;98724.34;5013174;28;20637;-65
2022/11/17 00:08:10;;;;;;;1.67;1.37;;;11.90;99.90;;;12.13;nan;98718.66;5012579;28;20637;-66
2022/11/17 00:10:37;;;;;;;2.23;1.40;;;11.90;99.90;;;12.19;nan;98712.75;4998081;28;20680;-66
2022/11/17 00:15:49;;;;;;;2.20;1.20;;;11.80;99.90;;;12.14;nan;98697.56;5013992;28;20614;-65
2022/11/17 00:21:18;;;;;;;2.60;1.27;;;11.80;99.90;;;12.33;nan;98697.19;5011034;28;20718;-64
2022/11/17 00:23:46;;;;;;;1.30;1.20;;;11.90;99.90;;;12.29;nan;98689.84;5010548;28;20699;-66
2022/11/17 00:26:18;;;;;;;2.40;1.40;;;11.90;99.90;;;12.30;nan;98681.03;5011066;28;20644;-66
2022/11/17 00:28:46;;;;;;;1.40;1.30;;;12.00;99.90;;;12.38;nan;98683.63;5010887;28;20652;-66
2022/11/17 00:34:05;;;;;;;3.53;1.30;;;12.00;99.90;;;12.33;nan;98676.25;4992551;28;20618;-66
2022/11/17 00:36:44;;;;;;;1.17;1.17;;;12.00;99.90;;;12.35;nan;98676.13;5011440;28;20630;-66
2022/11/17 00:39:12;;;;;;;1.27;1.10;;;12.00;99.90;;;12.27;nan;98670.88;5013191;28;20628;-66
2022/11/17 00:41:40;;;;;;;2.53;1.07;;;12.00;99.90;;;12.42;nan;98651.72;4994883;28;20676;-66
2022/11/17 00:44:07;;;;;;;1.20;1.20;;;12.00;99.90;;;12.34;nan;98659.59;5012329;28;20642;-66
2022/11/17 00:46:36;;;;;;;1.17;1.07;;;12.00;99.90;;;12.26;nan;98656.22;5011678;28;20630;-66
2022/11/17 00:49:08;;;;;;;2.10;1.13;;;12.00;99.90;;;12.10;nan;98645.78;5012628;28;20673;-66
2022/11/17 00:51:35;;;;;;;3.10;1.40;;;12.00;99.90;;;12.33;nan;98637.03;5010146;28;20665;-65
2022/11/17 00:54:04;;;;;;;0.90;0.87;;;12.00;99.90;;;12.22;nan;98634.00;5000489;28;20631;-65
2022/11/17 00:56:31;;;;;;;4.87;1.37;;;12.00;99.90;;;12.27;nan;98632.50;4977538;28;21017;-66
2022/11/17 00:58:59;;;;;;;2.13;1.17;;;12.00;99.90;;;12.30;nan;98633.97;5010214;28;21033;-66
2022/11/17 01:01:26;;;;;;;0.40;0.40;;;12.00;99.90;;;12.20;nan;98636.75;5011211;28;21253;-66
2022/11/17 01:04:02;;;;;;;0.97;0.97;;;12.00;99.90;;;12.41;nan;98631.78;4994446;28;20645;-66
2022/11/17 01:06:45;;;;;;;1.27;1.13;;;12.00;99.90;;;12.25;nan;98618.78;4996761;28;20628;-66
2022/11/17 01:09:22;;;;;;;0.90;0.90;;;12.00;99.90;;;12.20;nan;98613.22;4994006;28;20657;-66
2022/11/17 01:11:51;;;;;;;1.10;1.10;;;12.00;99.90;;;12.29;nan;98609.59;5010653;28;21047;-65
2022/11/17 01:14:25;;;;;;;0.80;0.80;;;12.00;99.90;;;12.41;nan;98602.22;5011620;28;21220;-66
2022/11/17 01:16:53;;;;;;;1.07;1.07;;;12.10;99.90;;;12.46;nan;98603.31;4993680;28;20638;-66
2022/11/17 01:19:22;;;;;;;1.33;1.20;;;12.10;99.90;;;12.42;nan;98599.41;5009159;28;20634;-65
2022/11/17 01:21:49;;;;;;;0.90;0.70;;;12.20;99.90;;;12.45;nan;98601.72;5009421;28;21326;-66
2022/11/17 01:24:16;;;;;;;1.03;0.93;;;12.20;99.90;;;12.59;nan;98599.31;5011795;28;20645;-65
2022/11/17 01:26:44;;;;;;;2.30;1.00;;;12.20;99.90;;;12.56;nan;98573.53;5012274;28;20644;-62
2022/11/17 01:29:15;;;;;;;1.43;1.20;;;12.30;99.90;;;12.44;nan;98573.09;5010867;28;20669;-65
2022/11/17 01:31:44;;;;;;;1.00;0.93;;;12.20;99.90;;;12.61;nan;98568.56;5011758;28;20653;-65
2022/11/17 01:34:12;;;;;;;2.40;1.30;;;12.30;99.90;;;12.50;nan;98553.28;4994384;28;21185;-65
2022/11/17 01:39:29;;;;;;;1.60;1.40;;;12.30;99.90;;;12.69;nan;98550.25;5011916;28;20668;-66
2022/11/17 01:41:57;;;;;;;0.70;0.70;;;12.30;99.90;;;12.74;nan;98537.44;5010935;28;20922;-66
2022/11/17 01:44:58;;;;;;;0.93;0.80;;;12.40;99.90;;;12.70;nan;98525.69;4994137;28;21201;-66
2022/11/17 01:47:53;;;;;;;0.77;0.77;;;12.40;99.90;;;12.66;nan;98522.63;5010806;28;20702;-66
2022/11/17 01:50:38;;;;;;;1.00;1.00;;;12.40;99.90;;;12.67;nan;98524.22;4998891;28;20677;-66
2022/11/17 01:53:14;;;;;;;2.87;1.13;;;12.40;99.90;;;12.73;nan;98515.72;4993999;28;20646;-66
2022/11/17 01:55:50;;;;;;;2.30;1.30;;;12.40;99.90;;;12.76;nan;98512.72;5009550;28;20707;-65
2022/11/17 01:58:41;;;;;;;2.13;1.13;;;12.40;99.90;;;12.77;nan;98513.53;4993749;28;21050;-66
2022/11/17 02:01:08;;;;;;;1.30;0.90;;;12.40;99.90;;;12.81;nan;98499.94;5011353;28;20812;-64
2022/11/17 02:03:36;;;;;;;1.57;1.47;;;12.40;99.90;;;12.82;nan;98492.91;5011172;28;21201;-67
2022/11/17 02:06:08;;;;;;;0.90;0.90;;;12.50;99.90;;;12.85;nan;98484.69;4997934;28;21052;-64
2022/11/17 02:08:37;;;;;;;1.70;1.00;;;12.50;99.90;;;12.90;nan;98487.59;4990891;28;20991;-64
2022/11/17 02:11:11;;;;;;;0.77;0.67;;;12.60;99.90;;;12.79;nan;98482.78;4993628;28;21217;-64
2022/11/17 02:13:39;;;;;;;0.80;0.80;;;12.50;99.90;;;12.81;nan;98467.72;5011515;28;20731;-64
2022/11/17 02:16:11;;;;;;;0.80;0.80;;;12.60;99.90;;;12.85;nan;98461.97;4995284;28;20664;-66
2022/11/17 02:18:40;;;;;;;2.20;1.20;;;12.60;99.90;;;12.80;nan;98461.66;5010374;28;21025;-65
2022/11/17 02:21:13;;;;;;;0.50;0.50;;;12.50;99.90;;;12.67;nan;98452.81;5009003;28;20673;-67
2022/11/17 02:23:49;;;;;;;0.90;0.90;;;12.50;99.90;;;12.84;nan;98449.06;5009231;28;20700;-67
2022/11/17 02:27:05;;;;;;;0.60;0.60;;;12.60;99.90;;;12.95;nan;98453.84;5005141;28;20687;-66
2022/11/17 02:29:56;;;;;;;0.50;0.50;;;12.70;99.90;;;13.06;nan;98435.13;4980157;28;20666;-65
2022/11/17 02:32:42;;;;;;;0.53;0.40;;;12.70;99.90;;;13.12;nan;98429.97;5004995;28;20638;-65
2022/11/17 02:35:22;;;;;;;0.53;0.53;;;12.80;99.90;;;13.13;nan;98434.25;5009735;28;20638;-64
2022/11/17 02:38:31;;;;;;;0.50;0.50;;;12.80;99.90;;;13.18;nan;98436.34;5011211;28;20642;-66
2022/11/17 02:41:16;;;;;;;1.73;0.87;;;12.80;99.90;;;13.21;nan;98425.47;4994406;28;20657;-63
2022/11/17 02:44:16;;;;;;;0.60;0.60;;;12.90;99.90;;;13.16;nan;98430.47;4994290;28;20644;-66
2022/11/17 02:47:18;;;;;;;1.23;0.90;;;12.90;99.90;;;13.24;nan;98444.25;5009841;28;20698;-65
2022/11/17 02:49:59;;;;;;;1.67;0.97;;;12.90;99.90;;;13.20;nan;98429.09;4962605;28;20690;-65
2022/11/17 02:52:29;;;;;;;0.50;0.50;;;13.00;99.90;;;13.19;nan;98415.19;5003130;28;20633;-66
2022/11/17 02:55:01;;;;;;;0.80;0.80;;;12.90;99.90;;;13.20;nan;98408.94;4994314;28;20634;-65
2022/11/17 02:57:34;;;;;;;0.63;0.63;;;12.90;99.90;;;13.05;nan;98404.72;5008377;28;20707;-67
2022/11/17 03:00:30;;;;;;;0.67;0.40;;;12.80;99.90;;;12.97;nan;98405.56;4996205;28;20664;-65
2022/11/17 03:03:22;;;;;;;2.10;0.97;;;12.70;99.90;;;12.69;nan;98414.19;4980150;28;20634;-66
2022/11/17 03:06:07;;;;;;;1.90;0.87;;;12.60;99.90;;;12.76;nan;98409.84;5014722;28;21205;-66
2022/11/17 03:09:33;;;;;;;0.83;0.83;;;12.60;99.90;;;12.67;nan;98403.09;5014475;28;20692;-65
2022/11/17 03:12:23;;;;;;;1.10;1.10;;;12.50;99.90;;;12.57;nan;98412.97;4964858;28;20708;-64
2022/11/17 03:15:10;;;;;;;0.83;0.83;;;12.40;99.90;;;12.53;nan;98422.97;5014265;28;20644;-65
2022/11/17 03:17:58;;;;;;;0.60;0.60;;;12.40;99.90;;;12.51;nan;98409.28;5012287;28;20620;-66
2022/11/17 03:20:39;;;;;;;1.40;1.30;;;12.40;99.90;;;12.56;nan;98400.91;4995570;28;20657;-65
2022/11/17 03:23:13;;;;;;;0.63;0.63;;;12.30;99.90;;;12.45;nan;98408.19;4996239;28;20637;-65
2022/11/17 03:25:47;;;;;;;0.63;0.63;;;12.30;99.90;;;12.32;nan;98431.47;5010981;28;20689;-65
2022/11/17 03:28:17;;;;;;;1.17;1.07;;;12.20;99.90;;;12.48;nan;98419.28;4996124;28;20637;-65
2022/11/17 03:30:47;;;;;;;4.60;0.70;;;12.20;99.90;;;12.10;nan;98419.19;4996626;28;20669;-65
2022/11/17 03:33:19;;;;;;;2.83;1.20;;;12.10;99.90;;;11.97;nan;98405.88;5014261;28;20684;-65
2022/11/17 03:35:59;;;;;;;5.33;1.20;;;12.00;99.90;;;12.00;nan;98410.78;4997114;28;20634;-65
2022/11/17 03:38:32;;;;;;;0.60;0.60;;;11.90;99.90;;;11.93;nan;98415.06;5003303;28;20629;-65
2022/11/17 03:41:02;;;;;;;0.87;0.87;;;11.80;99.90;;;11.89;nan;98407.72;4992892;28;20700;-65
2022/11/17 03:43:31;;;;;;;1.17;0.40;;;11.70;99.90;;;11.72;nan;98412.22;4994601;28;20634;-65
2022/11/17 03:46:06;;;;;;;0.80;0.80;;;11.60;99.90;;;11.72;nan;98409.63;4996321;28;20694;-65
2022/11/17 03:48:38;;;;;;;0.70;0.70;;;11.60;99.90;;;11.63;nan;98408.00;4979404;28;20637;-65
2022/11/17 03:51:11;;;;;;;1.23;0.80;;;11.50;99.90;;;11.86;nan;98403.66;5012863;28;20683;-66
2022/11/17 03:53:38;;;;;;;1.43;0.90;;;11.60;99.90;;;11.91;nan;98406.56;5007887;28;20637;-65
2022/11/17 03:56:24;;;;;;;0.87;0.87;;;11.60;99.90;;;11.90;nan;98406.75;4999373;28;20634;-65
2022/11/17 03:59:04;;;;;;;0.50;0.50;;;11.60;99.90;;;11.95;nan;98404.41;5013640;28;20634;-66
2022/11/17 04:01:32;;;;;;;1.33;0.60;;;11.70;99.90;;;12.01;nan;98406.38;5012130;28;20719;-65
2022/11/17 04:03:59;;;;;;;1.10;1.07;;;11.70;99.90;;;12.20;nan;98416.38;4995341;28;21027;-65
2022/11/17 04:06:26;;;;;;;0.60;0.60;;;11.90;99.90;;;12.12;nan;98409.38;5013670;28;20653;-65
2022/11/17 04:08:53;;;;;;;1.20;0.73;;;11.80;99.90;;;12.10;nan;98419.19;5012968;28;20703;-65
2022/11/17 04:16:51;;;;;;;0.40;0.40;;;11.70;99.90;;;11.84;nan;98410.84;5013563;28;20621;-65
2022/11/17 04:19:18;;;;;;;1.27;0.93;;;11.70;99.90;;;11.86;nan;98414.09;5011230;28;20629;-64
2022/11/17 04:21:45;;;;;;;0.60;0.57;;;11.60;99.90;;;11.91;nan;98419.63;5011135;28;21310;-64
2022/11/17 04:24:12;;;;;;;1.27;1.20;;;11.60;99.90;;;11.68;nan;98408.34;5011853;28;20648;-65
2022/11/17 04:29:24;;;;;;;0.73;0.70;;;11.50;99.90;;;11.60;nan;98411.78;5011561;28;21266;-64
2022/11/17 04:31:54;;;;;;;0.73;0.73;;;11.50;99.90;;;11.50;nan;98408.53;5010185;28;20670;-65
2022/11/17 04:34:20;;;;;;;1.10;1.10;;;11.40;99.90;;;11.50;nan;98399.88;4994072;28;20635;-66
2022/11/17 04:36:49;;;;;;;0.93;0.93;;;11.30;99.90;;;11.48;nan;98414.91;4993632;28;20623;-66
2022/11/17 04:39:20;;;;;;;0.97;0.97;;;11.30;99.90;;;11.39;nan;98406.28;5008757;28;20656;-66
2022/11/17 04:41:52;;;;;;;1.87;0.73;;;11.20;99.90;;;11.43;nan;98402.38;5011820;28;21050;-66
2022/11/17 04:44:23;;;;;;;0.87;0.87;;;11.20;99.90;;;11.36;nan;98395.38;5011042;28;20640;-65
2022/11/17 04:46:52;;;;;;;1.77;1.23;;;11.20;99.90;;;11.43;nan;98391.13;5008252;28;20699;-65
2022/11/17 04:49:20;;;;;;;1.07;1.00;;;11.20;99.90;;;11.54;nan;98393.38;4990457;28;20703;-67
2022/11/17 04:51:52;;;;;;;0.63;0.63;;;11.20;99.90;;;11.39;nan;98387.22;5011436;28;20670;-66
2022/11/17 04:54:26;;;;;;;0.63;0.63;;;11.20;99.90;;;11.40;nan;98388.84;5006547;28;20625;-65
2022/11/17 04:56:54;;;;;;;1.30;1.07;;;11.20;99.90;;;11.42;nan;98381.66;4997727;28;20630;-65
2022/11/17 04:59:24;;;;;;;0.80;0.80;;;11.20;99.90;;;11.46;nan;98383.75;4998863;28;20700;-66
2022/11/17 05:01:51;;;;;;;1.37;1.00;;;11.20;99.90;;;11.64;nan;98381.72;5011775;28;20658;-66
2022/11/17 05:07:07;;;;;;;1.10;1.10;;;11.40;99.90;;;11.62;nan;98386.31;5011720;28;20621;-67
2022/11/17 05:09:34;;;;;;;1.00;1.00;;;11.30;99.90;;;11.51;nan;98367.59;5012583;28;20617;-64
2022/11/17 05:14:49;;;;;;;0.60;0.60;;;11.30;99.90;;;11.41;nan;98374.81;5011019;28;20625;-65
2022/11/17 05:17:16;;;;;;;1.00;1.00;;;11.20;99.90;;;11.27;nan;98367.69;5011069;28;20640;-66
2022/11/17 05:19:46;;;;;;;3.63;0.67;;;11.20;99.90;;;11.33;nan;98367.81;5005492;28;20646;-66
2022/11/17 05:25:07;;;;;;;0.70;0.47;;;11.10;99.90;;;11.24;nan;98365.41;4996575;28;20618;-63
2022/11/17 05:27:34;;;;;;;0.50;0.50;;;11.00;99.90;;;11.31;nan;98368.97;5011919;28;21052;-65
2022/11/17 05:30:04;;;;;;;1.00;1.00;;;11.00;99.90;;;11.20;nan;98374.56;4999520;28;21167;-66
2022/11/17 05:32:31;;;;;;;1.73;1.37;;;11.00;99.90;;;11.25;nan;98372.25;4994413;28;20675;-65
2022/11/17 05:34:57;;;;;;;0.73;0.73;;;11.00;99.90;;;11.12;nan;98364.13;5010877;28;20641;-66
2022/11/17 05:37:24;;;;;;;0.40;0.40;;;11.00;99.90;;;11.34;nan;98366.03;5012168;28;20633;-66
2022/11/17 05:39:51;;;;;;;1.07;1.07;;;11.00;99.90;;;11.32;nan;98371.44;5011525;28;20760;-65
2022/11/17 05:42:18;;;;;;;1.10;1.10;;;11.00;99.90;;;11.51;nan;98362.34;5009826;28;21259;-65
2022/11/17 05:44:47;;;;;;;0.80;0.80;;;11.20;99.90;;;11.54;nan;98348.97;5011036;28;20632;-65
2022/11/17 05:47:14;;;;;;;1.27;1.00;;;11.30;99.90;;;11.39;nan;98351.47;4993140;28;20648;-65
2022/11/17 05:49:41;;;;;;;0.40;0.40;;;11.20;99.90;;;11.28;nan;98340.59;4989378;28;20641;-65
2022/11/17 05:52:08;;;;;;;1.10;1.00;;;11.20;99.90;;;11.42;nan;98338.09;5009562;28;20673;-66
2022/11/17 05:54:35;;;;;;;0.90;0.70;;;11.10;99.90;;;11.39;nan;98320.13;5003742;28;20679;-66
2022/11/17 05:57:16;;;;;;;1.43;0.90;;;11.20;99.90;;;11.29;nan;98344.81;5010083;28;20630;-65
2022/11/17 05:59:49;;;;;;;0.47;0.47;;;11.20;99.90;;;11.34;nan;98356.41;5007837;28;20688;-64
2022/11/17 06:02:25;;;;;;;1.07;1.07;;;11.20;99.90;;;11.43;nan;98367.63;5007866;28;21081;-65
2022/11/17 06:04:52;;;;;;;0.40;0.40;;;11.20;99.90;;;11.40;nan;98370.56;5010469;28;20638;-65
2022/11/17 06:07:19;;;;;;;0.57;0.57;;;11.20;99.90;;;11.49;nan;98359.09;5010648;28;20642;-64
2022/11/17 06:09:46;;;;;;;0.70;0.70;;;11.20;99.90;;;11.54;nan;98362.81;5011108;28;21023;-67
2022/11/17 06:12:14;;;;;;;2.73;0.60;;;11.30;99.90;;;11.51;nan;98342.28;4993643;28;20800;-66
2022/11/17 06:14:41;;;;;;;0.60;0.60;;;11.20;99.90;;;11.50;nan;98364.16;5010439;28;21009;-65
2022/11/17 06:17:17;;;;;;;2.37;1.10;;;11.20;99.90;;;11.54;nan;98367.25;5011110;28;20700;-69
2022/11/17 06:19:55;;;;;;;1.80;0.50;;;11.30;99.90;;;11.48;nan;98358.28;4993041;28;21181;-66
2022/11/17 06:22:25;;;;;;;0.60;0.60;;;11.30;99.90;;;11.29;nan;98365.72;4994398;28;20667;-65
2022/11/17 06:24:53;;;;;;;0.60;0.60;;;11.20;99.90;;;11.36;nan;98356.22;4994187;28;21231;-65
2022/11/17 06:27:20;;;;;;;0.80;0.80;;;11.20;99.90;;;11.48;nan;98368.72;5011321;28;21243;-65
2022/11/17 06:29:48;;;;;;;1.13;1.00;;;11.30;99.90;;;11.51;nan;98378.03;5010581;28;20630;-65
2022/11/17 06:32:18;;;;;;;0.57;0.43;;;11.30;99.90;;;11.42;nan;98377.25;4991966;28;20685;-65
2022/11/17 06:34:47;;;;;;;0.40;0.40;;;11.30;99.90;;;11.58;nan;98379.78;5015919;28;20720;-66
2022/11/17 06:37:21;;;;;;;1.13;1.13;;;11.30;99.90;;;11.35;nan;98381.50;5004002;28;20664;-66
2022/11/17 06:39:48;;;;;;;1.03;0.40;;;11.30;99.90;;;11.58;nan;98384.19;4981741;28;20622;-65
2022/11/17 06:42:15;;;;;;;0.77;0.60;;;11.30;99.90;;;11.52;nan;98377.84;5012572;28;21252;-65
2022/11/17 06:44:41;;;;;;;1.53;0.50;;;11.30;99.90;;;11.51;nan;98389.28;5020831;28;20641;-66
2022/11/17 06:47:08;;;;;;;0.50;0.50;;;11.30;99.90;;;11.57;nan;98390.41;4996516;28;20976;-66
2022/11/17 06:49:35;;;;;;;1.10;1.00;;;11.30;99.90;;;11.40;nan;98394.06;5010536;28;21270;-65
2022/11/17 06:52:02;;;;;;;1.00;0.93;;;11.30;99.90;;;11.53;nan;98392.53;5013183;28;20685;-67
2022/11/17 06:54:29;;;;;;;0.50;0.50;;;11.30;99.90;;;11.45;nan;98387.38;5013580;28;20625;-68
2022/11/17 06:56:56;;;;;;;0.60;0.60;;;11.30;99.90;;;11.43;nan;98385.91;5013508;28;20626;-67
2022/11/17 06:59:23;;;;;;;0.90;0.90;;;11.30;99.90;;;11.29;nan;98378.75;4996220;28;20638;-67
2022/11/17 07:01:51;;;;;;;0.97;0.97;;;11.20;99.90;;;11.58;nan;98394.66;5012412;28;20692;-66
2022/11/17 07:04:18;;;;;;;0.40;0.40;;;11.30;99.90;;;11.48;nan;98380.97;5004657;28;20645;-66
2022/11/17 07:06:45;;;;;;;0.40;0.40;;;11.30;99.90;;;11.55;nan;98382.75;5014714;28;21468;-69
2022/11/17 07:09:12;;;;;;;0.63;0.63;;;11.30;99.90;;;11.58;nan;98389.44;5012961;28;20646;-67
2022/11/17 07:11:39;;;;;;;2.07;1.10;;;11.30;99.90;;;11.69;nan;98387.25;5013518;28;20672;-65
2022/11/17 07:14:06;;;;;;;0.50;0.43;;;11.40;99.90;;;11.64;nan;98389.56;5013441;28;21022;-67
2022/11/17 07:16:33;;;;;;;0.63;0.63;;;11.40;99.90;;;11.74;nan;98391.16;5014628;28;20636;-66
2022/11/17 07:19:02;;;;;;;0.60;0.60;;;11.40;99.90;;;11.79;nan;98381.00;5011376;28;20644;-64
2022/11/17 07:21:29;;;;;;;0.53;0.53;;;11.50;99.90;;;11.83;nan;98392.75;5012451;28;21263;-67
2022/11/17 07:23:57;;;;;;;0.50;0.50;;;11.60;99.90;;;11.91;nan;98385.66;5013589;28;20637;-66
2022/11/17 07:26:24;;;;;;;0.50;0.50;;;11.60;99.90;;;11.89;nan;98386.81;5012844;28;20678;-65
2022/11/17 07:28:50;;;;;;;0.60;0.60;;;11.70;99.90;;;12.06;nan;98383.13;5012709;28;20687;-65
2022/11/17 07:31:17;;;;;;;0.70;0.70;;;11.70;99.90;;;12.07;nan;98384.75;5013696;28;20670;-64
2022/11/17 07:33:44;;;;;;;0.53;0.40;;;11.80;99.90;;;12.21;nan;98379.59;5013110;28;20622;-65
2022/11/17 07:36:16;;;;;;;1.00;0.70;;;11.90;99.90;;;12.13;nan;98390.13;5013040;28;20633;-65
2022/11/17 07:38:43;;;;;;;0.33;0.33;;;11.90;99.90;;;12.27;nan;98381.50;5012275;28;20632;-65
2022/11/17 07:41:13;;;;;;;0.50;0.40;;;12.00;99.90;;;12.22;nan;98383.03;5012047;28;20673;-65
2022/11/17 07:43:40;;;;;;;1.73;1.00;;;12.00;99.90;;;12.26;nan;98382.50;4994218;28;20641;-64
2022/11/17 07:46:12;;;;;;;0.40;0.40;;;12.00;99.90;;;12.23;nan;98390.69;5012955;28;21241;-66
2022/11/17 07:48:41;;;;;;;0.40;0.40;;;12.00;99.90;;;12.42;nan;98400.66;5013380;28;20653;-65
2022/11/17 07:51:08;;;;;;;0.93;0.93;;;12.10;99.90;;;12.55;nan;98405.31;5014196;28;20669;-65
2022/11/17 07:53:35;;;;;;;2.00;1.07;;;12.20;99.90;;;12.41;nan;98422.56;5010150;28;20638;-65
2022/11/17 07:56:08;;;;;;;0.50;0.50;;;12.20;99.90;;;12.48;nan;98429.72;5005716;28;20641;-65
2022/11/17 07:58:36;;;;;;;0.97;0.97;;;12.20;99.90;;;12.57;nan;98428.66;5009787;28;20641;-67
2022/11/17 08:01:15;;;;;;;0.80;0.80;;;12.20;99.90;;;12.37;nan;98429.13;4996718;28;21027;-65
2022/11/17 08:03:43;;;;;;;0.60;0.60;;;12.10;99.90;;;12.37;nan;98429.13;5000441;28;20639;-65
2022/11/17 08:06:10;;;;;;;1.27;0.60;;;12.10;99.90;;;12.30;nan;98433.47;5011469;28;20637;-66
2022/11/17 08:08:38;;;;;;;0.30;0.30;;;12.10;99.90;;;12.27;nan;98433.78;5007812;28;20637;-64
2022/11/17 08:11:09;;;;;;;0.87;0.57;;;12.00;99.90;;;12.31;nan;98429.03;5011108;28;20673;-66
2022/11/17 08:13:38;;;;;;;2.20;0.70;;;12.00;99.90;;;12.30;nan;98428.22;4995332;28;20634;-65
2022/11/17 08:16:07;;;;;;;0.50;0.50;;;12.00;99.90;;;12.11;nan;98423.44;5012420;28;20634;-65
2022/11/17 08:18:36;;;;;;;0.30;0.30;;;11.90;99.90;;;12.05;nan;98412.88;5011816;28;21189;-65
2022/11/17 08:21:12;;;;;;;4.13;0.90;;;11.90;99.90;;;12.08;nan;98408.09;5008388;28;20664;-65
2022/11/17 08:23:42;;;;;;;0.67;0.67;;;11.90;99.90;;;12.08;nan;98415.94;5018540;28;20631;-65
2022/11/17 08:26:10;;;;;;;1.73;0.80;;;11.90;99.90;;;12.02;nan;98411.41;4993850;28;20641;-65
2022/11/17 08:28:38;;;;;;;0.80;0.80;;;11.80;99.90;;;12.11;nan;98413.00;5011976;28;20688;-64
2022/11/17 08:31:06;;;;;;;0.63;0.60;;;11.80;99.90;;;12.04;nan;98417.28;5011299;28;21403;-65
2022/11/17 08:33:33;;;;;;;0.90;0.90;;;11.80;99.90;;;12.08;nan;98429.00;5013357;28;20594;-66
2022/11/17 08:36:02;;;;;;;1.07;0.63;;;11.80;99.90;;;12.04;nan;98432.97;5011075;28;20987;-66
2022/11/17 08:38:29;;;;;;;0.87;0.83;;;11.80;99.90;;;12.03;nan;98426.09;5011927;28;20637;-65
2022/11/17 08:41:03;;;;;;;0.80;0.80;;;11.80;99.90;;;12.04;nan;98432.13;4993902;28;20661;-65
2022/11/17 08:43:30;;;;;;;0.80;0.80;;;11.70;99.90;;;12.12;nan;98435.53;5012177;28;20626;-65
2022/11/17 08:45:57;;;;;;;2.30;0.90;;;11.70;99.90;;;12.14;nan;98444.00;5007263;28;20626;-65
2022/11/17 08:48:24;;;;;;;0.83;0.83;;;11.80;99.90;;;12.12;nan;98443.38;5002933;28;20761;-66
2022/11/17 08:50:51;;;;;;;0.50;0.50;;;11.80;99.90;;;12.14;nan;98448.41;4989853;28;21024;-66
2022/11/17 08:53:21;;;;;;;0.50;0.50;;;11.80;99.90;;;12.07;nan;98456.16;5008360;28;20630;-66
2022/11/17 08:55:49;;;;;;;0.60;0.60;;;11.80;99.90;;;11.98;nan;98448.50;5009809;28;21365;-65
2022/11/17 08:58:16;;;;;;;0.70;0.70;;;11.80;99.90;;;11.93;nan;98435.97;4992356;28;20639;-65
2022/11/17 09:00:45;;;;;;;0.70;0.70;;;11.80;99.90;;;12.19;nan;98448.72;4992853;28;21253;-66
2022/11/17 09:03:12;;;;;;;0.83;0.83;;;11.80;99.90;;;12.24;nan;98441.19;5007611;28;20664;-66
2022/11/17 09:05:43;;;;;;;6.80;1.87;;;11.80;99.90;;;12.27;nan;98449.47;4994300;28;20622;-66
2022/11/17 09:08:12;;;;;;;3.50;0.90;;;11.90;99.90;;;12.33;nan;98458.41;5010852;28;20638;-65
2022/11/17 09:11:07;;;;;;;0.90;0.90;;;12.00;99.90;;;12.36;nan;98471.97;5009077;28;20664;-65
2022/11/17 09:13:35;;;;;;;1.03;0.60;;;12.00;99.90;;;12.52;nan;98478.09;5008773;28;20644;-66
2022/11/17 09:16:09;;;;;;;1.20;1.20;;;12.10;99.90;;;12.57;nan;98479.19;4992397;28;20636;-64
2022/11/17 09:18:37;;;;;;;1.43;1.10;;;12.10;99.90;;;12.79;nan;98486.22;5006788;28;20634;-66
2022/11/17 09:21:09;;;;;;;1.07;0.93;;;12.20;99.90;;;13.18;nan;98486.88;5010484;28;20799;-66
2022/11/17 09:23:36;;;;;;;0.60;0.60;;;12.40;99.90;;;13.43;nan;98476.97;5010741;28;21048;-64
2022/11/17 09:26:11;;;;;;;3.80;0.90;;;12.60;99.90;;;13.29;nan;98488.22;5011692;28;20629;-65
2022/11/17 09:28:38;;;;;;;2.80;1.13;;;12.70;99.90;;;13.01;nan;98487.19;5011229;28;20699;-65
2022/11/17 09:31:12;;;;;;;0.67;0.67;;;12.70;99.90;;;12.85;nan;98500.38;5010912;28;21240;-64
2022/11/17 09:33:41;;;;;;;2.47;1.23;;;12.60;99.90;;;12.98;nan;98495.38;5011669;28;20630;-68
2022/11/17 09:36:10;;;;;;;1.33;1.23;;;12.60;99.90;;;12.99;nan;98503.03;5018135;28;20630;-66
2022/11/17 09:38:37;;;;;;;1.43;1.10;;;12.60;99.90;;;13.16;nan;98506.38;4993510;28;20634;-66
2022/11/17 09:41:26;;;;;;;1.10;1.00;;;12.70;99.90;;;12.94;nan;98500.16;5011216;28;21209;-65
2022/11/17 09:44:19;;;;;;;6.73;1.00;;;12.60;99.90;;;13.08;nan;98503.81;5002102;28;21220;-65
2022/11/17 09:47:31;;;;;;;1.00;1.00;;;12.60;99.90;;;13.13;nan;98498.88;4965221;28;20701;-66
2022/11/17 09:50:25;;;;;;;0.80;0.80;;;12.70;99.90;;;13.03;nan;98506.94;5000808;28;20641;-67
2022/11/17 09:53:13;;;;;;;2.30;1.40;;;12.60;99.90;;;12.98;nan;98500.63;5004011;28;20674;-64
2022/11/17 09:55:45;;;;;;;3.27;0.90;;;12.60;99.90;;;13.09;nan;98508.06;5003289;28;20641;-67
2022/11/17 09:58:24;;;;;;;1.27;0.80;;;12.60;99.90;;;13.47;nan;98507.06;4990294;28;20633;-66
2022/11/17 10:00:52;;;;;;;3.80;1.20;;;12.70;99.90;;;13.95;nan;98506.50;5012814;28;20648;-66
2022/11/17 10:03:25;;;;;;;1.20;0.87;;;13.00;99.90;;;14.28;nan;98517.38;4994180;28;20638;-66
2022/11/17 10:05:53;;;;;;;2.00;0.70;;;13.30;99.90;;;14.24;nan;98512.69;5010676;28;20691;-66
2022/11/17 10:08:37;;;;;;;2.20;0.80;;;13.50;99.90;;;14.26;nan;98511.50;4992016;28;20700;-66
2022/11/17 10:11:31;;;;;;;3.40;1.10;;;13.50;99.90;;;14.46;nan;98520.44;4992891;28;20686;-67
2022/11/17 10:14:20;;;;;;;1.53;0.90;;;13.60;99.90;;;14.72;nan;98525.97;5010065;28;20645;-66
2022/11/17 10:16:52;;;;;;;2.53;0.63;;;13.80;99.90;;;15.00;nan;98522.56;5007509;28;20715;-67
2022/11/17 10:19:31;;;;;;;2.33;0.70;;;14.00;99.90;;;15.17;nan;98516.03;5009557;28;20641;-65
2022/11/17 10:22:01;;;;;;;0.93;0.87;;;14.10;99.90;;;15.51;nan;98514.31;5006401;28;21252;-67
2022/11/17 10:24:45;;;;;;;1.37;0.50;;;14.40;99.90;;;16.01;nan;98507.09;5008337;28;20641;-66
2022/11/17 10:27:29;;;;;;;2.97;0.80;;;14.70;99.90;;;16.57;nan;98499.84;5009643;28;20692;-65
2022/11/17 10:30:20;;;;;;;2.10;0.93;;;15.10;99.90;;;16.77;nan;98493.59;5004850;28;20633;-66
2022/11/17 10:32:48;;;;;;;0.70;0.67;;;15.40;99.90;;;16.56;nan;98504.28;5008908;28;20681;-65
2022/11/17 10:35:34;;;;;;;2.03;0.67;;;15.50;99.90;;;16.26;nan;98503.75;5010272;28;20640;-65
2022/11/17 10:38:05;;;;;;;4.00;0.60;;;15.40;99.90;;;16.04;nan;98506.69;5001169;28;20683;-64
2022/11/17 10:40:48;;;;;;;0.60;0.60;;;15.30;99.90;;;15.72;nan;98510.78;4993412;28;20662;-65
2022/11/17 10:43:16;;;;;;;2.60;0.60;;;15.10;99.90;;;15.75;nan;98506.97;5009270;28;20638;-64
2022/11/17 10:45:45;;;;;;;0.80;0.80;;;15.00;99.90;;;15.69;nan;98519.09;5010307;28;20633;-65
2022/11/17 10:48:24;;;;;;;5.23;0.97;;;14.90;99.90;;;15.64;nan;98510.13;4992677;28;20606;-65
2022/11/17 10:51:23;;;;;;;1.77;0.70;;;14.90;99.90;;;15.50;nan;98507.41;5010182;28;21027;-64
2022/11/17 10:54:14;;;;;;;0.83;0.83;;;14.80;99.90;;;15.19;nan;98501.72;4992064;28;20634;-65
2022/11/17 10:56:45;;;;;;;3.70;0.90;;;14.70;99.90;;;15.09;nan;98500.44;5009524;28;20637;-65
2022/11/17 10:59:41;;;;;;;0.93;0.60;;;14.60;99.90;;;15.22;nan;98490.03;5009584;28;20622;-66
2022/11/17 11:02:29;;;;;;;7.20;0.70;;;14.50;99.90;;;15.46;nan;98477.28;4995485;28;21076;-64
2022/11/17 11:05:14;;;;;;;0.77;0.77;;;14.60;99.90;;;15.60;nan;98493.13;5004956;28;20648;-65
2022/11/17 11:07:42;;;;;;;0.73;0.73;;;14.70;99.90;;;15.83;nan;98491.03;4985221;28;20642;-66
2022/11/17 11:10:29;;;;;;;3.07;0.70;;;14.80;99.90;;;16.04;nan;98502.25;5005811;28;20667;-66
2022/11/17 11:13:14;;;;;;;3.80;1.17;;;15.00;99.90;;;15.80;nan;98494.84;5010109;28;20715;-66
2022/11/17 11:15:41;;;;;;;2.53;0.97;;;15.00;99.90;;;15.55;nan;98485.81;5015175;28;20683;-67
2022/11/17 11:18:17;;;;;;;0.87;0.30;;;14.90;99.90;;;15.46;nan;98495.66;5010694;28;20622;-66
2022/11/17 11:21:36;;;;;;;0.40;0.37;;;14.80;99.90;;;15.45;nan;98496.69;5012108;28;20653;-66
2022/11/17 11:24:23;;;;;;;0.53;0.40;;;14.70;99.90;;;15.74;nan;98500.88;4978759;28;20645;-67
2022/11/17 11:27:21;;;;;;;1.40;0.60;;;14.90;99.90;;;15.77;nan;98507.59;4993494;28;20643;-66